createdAt,value
2023-02-28T00:01:31.354Z,14.70
2023-02-28T00:03:59.713Z,13.10
2023-02-28T00:06:27.824Z,12.00
2023-02-28T00:08:55.958Z,12.90
2023-02-28T00:11:24.225Z,12.00
2023-02-28T00:13:52.297Z,13.00
2023-02-28T00:16:23.682Z,15.40
2023-02-28T00:18:52.346Z,13.50
2023-02-28T00:21:21.263Z,13.70
2023-02-28T00:23:49.614Z,17.60
2023-02-28T00:26:20.031Z,17.10
2023-02-28T00:28:49.997Z,14.90
2023-02-28T00:31:18.008Z,14.40
2023-02-28T00:33:46.182Z,16.90
2023-02-28T00:36:16.227Z,16.60
2023-02-28T00:38:44.278Z,14.00
2023-02-28T00:41:12.855Z,16.60
2023-02-28T00:43:41.353Z,18.00
2023-02-28T00:46:09.755Z,18.70
2023-02-28T00:48:37.954Z,18.20
2023-02-28T00:51:06.779Z,18.30
2023-02-28T00:53:34.953Z,17.10
2023-02-28T00:56:03.958Z,21.00
2023-02-28T00:58:33.756Z,16.80
2023-02-28T01:01:02.041Z,16.40
2023-02-28T01:03:30.224Z,15.80
2023-02-28T01:05:58.786Z,16.10
2023-02-28T01:08:27.891Z,16.70
2023-02-28T01:10:55.970Z,13.40
2023-02-28T01:13:26.379Z,12.80
2023-02-28T01:15:57.137Z,14.00
2023-02-28T01:18:26.638Z,14.10
2023-02-28T01:20:55.303Z,12.40
2023-02-28T01:23:25.221Z,14.80
2023-02-28T01:25:53.902Z,14.50
2023-02-28T01:28:22.382Z,13.20
2023-02-28T01:30:52.264Z,10.90
2023-02-28T01:33:20.680Z,12.40
2023-02-28T01:35:49.424Z,14.80
2023-02-28T01:38:22.450Z,14.60
2023-02-28T01:40:51.975Z,14.50
2023-02-28T01:43:32.627Z,14.30
2023-02-28T01:46:00.937Z,16.10
2023-02-28T01:48:35.535Z,15.50
2023-02-28T01:51:10.920Z,15.70
2023-02-28T01:53:47.089Z,16.50
2023-02-28T01:56:21.686Z,14.00
2023-02-28T01:58:55.341Z,15.60
2023-02-28T02:01:27.331Z,14.40
2023-02-28T02:04:02.372Z,16.30
2023-02-28T02:06:39.567Z,17.80
2023-02-28T02:09:09.249Z,13.90
2023-02-28T02:11:40.201Z,15.40
2023-02-28T02:14:39.783Z,15.80
2023-02-28T02:17:14.663Z,19.50
2023-02-28T02:20:10.444Z,15.30
2023-02-28T02:23:16.593Z,14.20
2023-02-28T02:26:01.361Z,15.20
2023-02-28T02:28:54.419Z,15.70
2023-02-28T02:31:41.431Z,18.40
2023-02-28T02:34:24.858Z,17.00
2023-02-28T02:37:02.157Z,13.40
2023-02-28T02:39:46.193Z,13.50
2023-02-28T02:42:23.558Z,12.60
2023-02-28T02:44:58.076Z,15.30
2023-02-28T02:47:28.843Z,14.10
2023-02-28T02:50:02.032Z,16.00
2023-02-28T02:52:39.887Z,15.20
2023-02-28T02:55:12.227Z,13.80
2023-02-28T02:57:48.797Z,14.40
2023-02-28T03:00:20.669Z,14.60
2023-02-28T03:02:51.357Z,17.10
2023-02-28T03:05:32.237Z,15.40
2023-02-28T03:08:00.427Z,16.40
2023-02-28T03:10:40.277Z,15.10
2023-02-28T03:13:26.802Z,16.00
2023-02-28T03:18:53.416Z,15.90
2023-02-28T03:21:46.578Z,14.50
2023-02-28T03:24:20.494Z,15.30
2023-02-28T03:26:57.057Z,13.60
2023-02-28T03:29:34.753Z,13.50
2023-02-28T03:32:30.083Z,14.00
2023-02-28T03:35:07.141Z,15.40
2023-02-28T03:37:39.514Z,15.80
2023-02-28T03:40:13.892Z,16.70
2023-02-28T03:42:45.552Z,16.20
2023-02-28T03:45:19.324Z,17.10
2023-02-28T03:48:19.216Z,17.50
2023-02-28T03:50:50.644Z,17.60
2023-02-28T03:53:40.449Z,12.80
2023-02-28T03:56:17.422Z,11.30
2023-02-28T03:58:49.793Z,13.20
2023-02-28T04:01:35.227Z,12.60
2023-02-28T04:04:04.196Z,12.40
2023-02-28T04:06:34.182Z,11.90
2023-02-28T04:09:04.891Z,12.70
2023-02-28T04:11:43.018Z,13.30
2023-02-28T04:14:11.915Z,12.70
2023-02-28T04:16:42.435Z,14.20
2023-02-28T04:19:13.169Z,12.50
2023-02-28T04:21:47.598Z,14.10
2023-02-28T04:24:18.363Z,16.50
2023-02-28T04:26:49.278Z,15.50
2023-02-28T04:29:29.675Z,16.60
2023-02-28T04:32:01.261Z,17.20
2023-02-28T04:34:32.576Z,18.70
2023-02-28T04:37:17.031Z,15.10
2023-02-28T04:39:45.665Z,16.80
2023-02-28T04:42:14.900Z,17.20
2023-02-28T04:44:42.927Z,15.30
2023-02-28T04:47:11.415Z,18.90
2023-02-28T04:49:39.610Z,19.60
2023-02-28T04:52:08.786Z,18.10
2023-02-28T04:54:37.174Z,19.90
2023-02-28T04:57:05.647Z,20.60
2023-02-28T04:59:34.126Z,22.50
2023-02-28T05:02:08.095Z,19.50
2023-02-28T05:04:37.303Z,19.70
2023-02-28T05:07:05.599Z,18.70
2023-02-28T05:09:34.420Z,16.90
2023-02-28T05:12:02.571Z,18.00
2023-02-28T05:14:30.739Z,15.70
2023-02-28T05:16:58.842Z,19.40
2023-02-28T05:19:26.871Z,20.30
2023-02-28T05:21:56.487Z,19.50
2023-02-28T05:24:24.793Z,17.80
2023-02-28T05:26:55.025Z,18.50
2023-02-28T05:29:23.712Z,17.20
2023-02-28T05:31:51.837Z,18.70
2023-02-28T05:34:20.114Z,19.50
2023-02-28T05:36:48.212Z,16.80
2023-02-28T05:39:16.161Z,18.80
2023-02-28T05:41:44.861Z,19.00
2023-02-28T05:44:13.595Z,16.90
2023-02-28T05:46:41.917Z,21.20
2023-02-28T05:49:10.162Z,22.30
2023-02-28T05:51:41.085Z,21.60
2023-02-28T05:54:09.912Z,19.60
2023-02-28T05:56:40.977Z,22.50
2023-02-28T05:59:09.041Z,20.60
2023-02-28T06:01:49.433Z,20.10
2023-02-28T06:04:31.139Z,23.10
2023-02-28T06:07:00.088Z,23.50
2023-02-28T06:09:28.435Z,26.30
2023-02-28T06:12:04.839Z,33.90
2023-02-28T06:14:34.738Z,38.60
2023-02-28T06:17:03.979Z,36.50
2023-02-28T06:19:32.428Z,31.60
2023-02-28T06:22:00.903Z,32.90
2023-02-28T06:24:29.250Z,33.80
2023-02-28T06:26:58.774Z,27.10
2023-02-28T06:29:27.136Z,25.40
2023-02-28T06:31:55.152Z,27.40
2023-02-28T06:34:23.587Z,27.20
2023-02-28T06:36:52.816Z,26.90
2023-02-28T06:39:21.006Z,24.40
2023-02-28T06:41:55.468Z,30.70
2023-02-28T06:44:25.310Z,66.40
2023-02-28T06:46:53.377Z,52.10
2023-02-28T06:49:21.534Z,36.90
2023-02-28T06:51:49.846Z,38.90
2023-02-28T06:54:17.908Z,39.20
2023-02-28T06:56:46.168Z,42.10
2023-02-28T06:59:14.479Z,45.60
2023-02-28T07:01:42.535Z,43.80
2023-02-28T07:04:10.683Z,40.50
2023-02-28T07:06:38.750Z,38.50
2023-02-28T07:09:06.873Z,35.30
2023-02-28T07:11:35.301Z,37.70
2023-02-28T07:14:03.583Z,36.50
2023-02-28T07:16:31.589Z,32.70
2023-02-28T07:18:59.718Z,29.40
2023-02-28T07:21:28.030Z,29.00
2023-02-28T07:23:57.807Z,28.90
2023-02-28T07:26:25.871Z,25.20
2023-02-28T07:28:54.248Z,23.70
2023-02-28T07:31:22.349Z,20.90
2023-02-28T07:33:50.535Z,23.10
2023-02-28T07:36:19.985Z,25.70
2023-02-28T07:38:51.275Z,26.90
2023-02-28T07:41:22.057Z,25.90
2023-02-28T07:43:50.170Z,23.60
2023-02-28T07:46:19.547Z,25.50
2023-02-28T07:48:47.540Z,19.60
2023-02-28T07:51:15.808Z,13.50
2023-02-28T07:53:43.771Z,13.00
2023-02-28T07:56:12.258Z,13.50
2023-02-28T07:58:40.227Z,16.50
2023-02-28T08:01:10.299Z,20.50
2023-02-28T08:03:39.672Z,16.30
2023-02-28T08:06:09.971Z,13.40
2023-02-28T08:08:37.959Z,13.90
2023-02-28T08:11:06.215Z,18.20
2023-02-28T08:13:34.919Z,15.40
2023-02-28T08:16:04.026Z,13.10
2023-02-28T08:18:34.106Z,12.60
2023-02-28T08:21:11.128Z,12.70
2023-02-28T08:23:39.270Z,14.20
2023-02-28T08:26:07.851Z,15.30
2023-02-28T08:28:35.787Z,12.10
2023-02-28T08:31:09.362Z,12.30
2023-02-28T08:33:40.104Z,14.70
2023-02-28T08:36:09.607Z,13.70
2023-02-28T08:38:38.542Z,13.00
2023-02-28T08:41:11.578Z,10.70
2023-02-28T08:43:40.792Z,11.80
2023-02-28T08:46:11.586Z,11.20
2023-02-28T08:48:40.801Z,14.80
2023-02-28T08:51:22.600Z,10.60
2023-02-28T08:53:50.582Z,10.00
2023-02-28T08:56:18.789Z,12.20
2023-02-28T08:58:49.349Z,10.20
2023-02-28T09:01:22.952Z,13.50
2023-02-28T09:03:52.654Z,10.30
2023-02-28T09:06:22.778Z,11.30
2023-02-28T09:08:51.450Z,13.20
2023-02-28T09:11:20.218Z,12.20
2023-02-28T09:13:48.223Z,9.50
2023-02-28T09:16:17.636Z,10.40
2023-02-28T09:18:46.229Z,10.30
2023-02-28T09:21:20.398Z,11.10
2023-02-28T09:23:50.612Z,11.80
2023-02-28T09:26:34.775Z,10.00
2023-02-28T09:29:10.822Z,10.00
2023-02-28T09:31:38.911Z,10.70
2023-02-28T09:34:07.959Z,10.90
2023-02-28T09:36:45.162Z,11.00
2023-02-28T09:39:16.623Z,15.70
2023-02-28T09:41:51.296Z,12.70
2023-02-28T09:44:38.825Z,9.50
2023-02-28T09:47:42.075Z,10.80
2023-02-28T09:50:28.089Z,10.00
2023-02-28T09:52:56.849Z,9.90
2023-02-28T09:55:41.449Z,10.00
2023-02-28T09:58:32.432Z,8.40
2023-02-28T10:01:31.234Z,11.40
2023-02-28T10:04:26.366Z,10.60
2023-02-28T10:06:54.685Z,11.30
2023-02-28T10:09:28.494Z,10.30
2023-02-28T10:12:03.044Z,11.90
2023-02-28T10:14:35.286Z,11.70
2023-02-28T10:17:11.442Z,8.50
2023-02-28T10:19:44.839Z,11.20
2023-02-28T10:22:23.371Z,9.20
2023-02-28T10:24:54.046Z,9.90
2023-02-28T10:27:24.958Z,9.80
2023-02-28T10:30:01.596Z,10.80
2023-02-28T10:35:28.564Z,11.80
2023-02-28T10:38:01.998Z,10.40
2023-02-28T10:40:39.505Z,9.20
2023-02-28T10:43:21.618Z,12.00
2023-02-28T10:46:10.899Z,12.20
2023-02-28T10:48:51.173Z,11.10
2023-02-28T10:51:20.748Z,11.20
2023-02-28T10:54:03.363Z,12.40
2023-02-28T10:56:33.770Z,14.20
2023-02-28T10:59:31.385Z,14.10
2023-02-28T11:02:00.292Z,11.00
2023-02-28T11:04:33.737Z,15.90
2023-02-28T11:07:22.161Z,11.50
2023-02-28T11:09:55.203Z,13.80
2023-02-28T11:12:47.119Z,14.30
2023-02-28T11:15:27.192Z,12.80
2023-02-28T11:18:05.610Z,11.40
2023-02-28T11:20:35.415Z,10.60
2023-02-28T11:23:06.099Z,10.40
2023-02-28T11:25:37.909Z,11.40
2023-02-28T11:28:24.109Z,13.80
2023-02-28T11:31:03.137Z,12.20
2023-02-28T11:33:42.354Z,11.40
2023-02-28T11:36:18.025Z,11.10
2023-02-28T11:38:50.615Z,9.30
2023-02-28T11:41:56.793Z,11.40
2023-02-28T11:44:42.365Z,13.00
2023-02-28T11:47:41.348Z,12.50
2023-02-28T11:50:12.461Z,11.00
2023-02-28T11:52:57.328Z,12.80
2023-02-28T11:55:30.264Z,10.80
2023-02-28T11:58:52.670Z,11.00
2023-02-28T12:02:01.137Z,14.40
2023-02-28T12:04:43.284Z,11.20
2023-02-28T12:07:23.269Z,18.40
2023-02-28T12:09:57.280Z,11.20
2023-02-28T12:12:40.205Z,10.80
2023-02-28T12:15:45.524Z,11.00
2023-02-28T12:18:25.157Z,10.00
2023-02-28T12:21:18.149Z,10.70
2023-02-28T12:23:46.079Z,10.50
2023-02-28T12:26:14.660Z,11.20
2023-02-28T12:29:31.990Z,10.60
2023-02-28T12:32:07.759Z,10.10
2023-02-28T12:34:40.603Z,11.80
2023-02-28T12:37:18.645Z,10.60
2023-02-28T12:39:51.115Z,9.40
2023-02-28T12:42:29.527Z,9.50
2023-02-28T12:45:10.363Z,11.30
2023-02-28T12:47:43.588Z,10.50
2023-02-28T12:50:13.100Z,13.90
2023-02-28T12:53:06.536Z,11.80
2023-02-28T12:55:58.062Z,10.30
2023-02-28T12:58:42.416Z,12.20
2023-02-28T13:01:37.753Z,11.40
2023-02-28T13:04:18.823Z,10.70
2023-02-28T13:07:05.141Z,10.10
2023-02-28T13:09:33.479Z,15.70
2023-02-28T13:12:01.862Z,29.70
2023-02-28T13:14:35.898Z,12.80
2023-02-28T13:17:13.481Z,13.80
2023-02-28T13:19:55.787Z,11.70
2023-02-28T13:22:26.698Z,15.70
2023-02-28T13:24:56.644Z,16.40
2023-02-28T13:27:25.317Z,14.20
2023-02-28T13:29:54.707Z,11.40
2023-02-28T13:32:41.404Z,11.00
2023-02-28T13:35:09.378Z,10.10
2023-02-28T13:37:44.737Z,13.10
2023-02-28T13:40:12.704Z,10.80
2023-02-28T13:42:51.748Z,11.00
2023-02-28T13:45:31.258Z,12.30
2023-02-28T13:48:05.406Z,10.20
2023-02-28T13:50:39.179Z,11.00
2023-02-28T13:53:16.557Z,12.70
2023-02-28T13:55:55.086Z,10.80
2023-02-28T13:59:05.139Z,15.20
2023-02-28T14:01:45.472Z,12.00
2023-02-28T14:04:49.565Z,12.10
2023-02-28T14:07:30.545Z,13.00
2023-02-28T14:10:06.613Z,10.50
2023-02-28T14:12:57.657Z,11.40
2023-02-28T14:15:35.110Z,10.90
2023-02-28T14:18:06.950Z,12.70
2023-02-28T14:20:35.225Z,11.80
2023-02-28T14:23:15.640Z,14.80
2023-02-28T14:25:53.027Z,12.30
2023-02-28T14:28:42.002Z,16.70
2023-02-28T14:31:17.646Z,14.10
2023-02-28T14:34:23.382Z,15.90
2023-02-28T14:36:55.906Z,15.90
2023-02-28T14:39:26.933Z,15.30
2023-02-28T14:41:55.208Z,17.30
2023-02-28T14:44:28.986Z,22.70
2023-02-28T14:47:07.557Z,19.90
2023-02-28T14:49:39.738Z,15.50
2023-02-28T14:52:16.547Z,15.90
2023-02-28T14:54:45.930Z,52.20
2023-02-28T14:57:29.385Z,47.90
2023-02-28T15:00:11.685Z,19.10
2023-02-28T15:02:41.545Z,16.60
2023-02-28T15:05:18.519Z,16.70
2023-02-28T15:07:48.907Z,14.30
2023-02-28T15:10:17.016Z,16.20
2023-02-28T15:12:54.679Z,19.10
2023-02-28T15:15:31.929Z,21.20
2023-02-28T15:18:15.930Z,16.90
2023-02-28T15:20:45.684Z,17.20
2023-02-28T15:23:14.189Z,17.30
2023-02-28T15:25:43.285Z,18.10
2023-02-28T15:28:16.927Z,16.20
2023-02-28T15:31:01.053Z,16.90
2023-02-28T15:33:31.950Z,18.10
2023-02-28T15:36:18.679Z,16.40
2023-02-28T15:38:52.687Z,20.00
2023-02-28T15:41:30.109Z,29.50
2023-02-28T15:44:36.297Z,43.50
2023-02-28T15:47:07.691Z,30.80
2023-02-28T15:49:46.813Z,33.00
2023-02-28T15:52:22.576Z,24.80
2023-02-28T15:54:50.745Z,27.90
2023-02-28T15:57:22.840Z,20.20
2023-02-28T15:59:57.477Z,19.60
2023-02-28T16:02:37.413Z,20.40
2023-02-28T16:05:11.418Z,24.30
2023-02-28T16:07:41.455Z,30.40
2023-02-28T16:10:12.443Z,29.30
2023-02-28T16:12:41.856Z,31.10
2023-02-28T16:15:20.779Z,41.80
2023-02-28T16:17:49.481Z,35.00
2023-02-28T16:20:26.554Z,38.90
2023-02-28T16:22:55.658Z,36.90
2023-02-28T16:25:37.200Z,34.10
2023-02-28T16:28:09.810Z,28.80
2023-02-28T16:30:37.816Z,31.40
2023-02-28T16:33:09.024Z,26.80
2023-02-28T16:35:37.092Z,28.90
2023-02-28T16:38:05.300Z,29.80
2023-02-28T16:40:36.157Z,28.20
2023-02-28T16:43:16.530Z,31.20
2023-02-28T16:45:44.817Z,31.70
2023-02-28T16:48:16.338Z,34.70
2023-02-28T16:50:47.433Z,32.10
2023-02-28T16:53:16.221Z,34.10
2023-02-28T16:55:44.924Z,37.00
2023-02-28T16:58:18.432Z,35.60
2023-02-28T17:00:46.429Z,34.60
2023-02-28T17:03:32.662Z,32.30
2023-02-28T17:06:02.240Z,31.90
2023-02-28T17:08:33.195Z,31.30
2023-02-28T17:11:02.822Z,28.70
2023-02-28T17:13:31.000Z,29.60
2023-02-28T17:15:59.185Z,30.30
2023-02-28T17:18:27.989Z,31.70
2023-02-28T17:20:55.929Z,39.70
2023-02-28T17:23:25.032Z,62.70
2023-02-28T17:25:57.950Z,69.00
2023-02-28T17:28:26.509Z,66.30
2023-02-28T17:30:54.699Z,70.50
2023-02-28T17:33:22.742Z,80.70
2023-02-28T17:35:50.841Z,101.30
2023-02-28T17:38:20.662Z,107.60
2023-02-28T17:40:48.701Z,98.30
2023-02-28T17:43:16.980Z,91.50
2023-02-28T17:45:45.140Z,80.50
2023-02-28T17:48:13.848Z,79.30
2023-02-28T17:50:42.224Z,85.20
2023-02-28T17:53:10.412Z,78.20
2023-02-28T17:55:38.765Z,77.90
2023-02-28T17:58:07.035Z,89.60
2023-02-28T18:00:35.018Z,91.90
2023-02-28T18:03:03.143Z,96.10
2023-02-28T18:05:32.684Z,85.30
2023-02-28T18:08:01.681Z,87.10
2023-02-28T18:10:29.954Z,70.60
2023-02-28T18:12:58.019Z,66.30
2023-02-28T18:15:26.198Z,69.80
2023-02-28T18:17:54.178Z,59.00
2023-02-28T18:20:22.642Z,64.00
2023-02-28T18:22:50.724Z,60.90
2023-02-28T18:25:19.090Z,60.40
2023-02-28T18:27:59.152Z,65.30
2023-02-28T18:30:32.946Z,63.70
2023-02-28T18:33:02.164Z,47.50
2023-02-28T18:35:37.672Z,54.60
2023-02-28T18:38:19.410Z,44.00
2023-02-28T18:40:59.426Z,35.90
2023-02-28T18:43:28.527Z,28.80
2023-02-28T18:45:56.598Z,29.30
2023-02-28T18:48:24.906Z,29.00
2023-02-28T18:50:53.052Z,27.30
2023-02-28T18:53:21.019Z,29.70
2023-02-28T18:55:49.014Z,21.40
2023-02-28T18:58:17.160Z,17.60
2023-02-28T19:00:45.430Z,18.50
2023-02-28T19:03:13.857Z,22.30
2023-02-28T19:05:41.999Z,21.80
2023-02-28T19:08:10.473Z,26.70
2023-02-28T19:10:40.416Z,24.00
2023-02-28T19:13:08.367Z,26.20
2023-02-28T19:15:36.629Z,26.00
2023-02-28T19:18:04.731Z,32.20
2023-02-28T19:20:32.762Z,29.60
2023-02-28T19:23:01.517Z,37.60
2023-02-28T19:25:29.620Z,40.60
2023-02-28T19:27:57.844Z,40.10
2023-02-28T19:30:26.393Z,59.90
2023-02-28T19:32:54.943Z,54.40
2023-02-28T19:35:23.143Z,134.10
2023-02-28T19:37:52.856Z,100.70
2023-02-28T19:40:20.814Z,93.80
2023-02-28T19:42:48.781Z,85.60
2023-02-28T19:45:16.852Z,82.60
2023-02-28T19:47:44.921Z,78.40
2023-02-28T19:50:12.967Z,87.50
2023-02-28T19:55:10.366Z,76.90
2023-02-28T19:57:38.343Z,75.90
2023-02-28T20:00:07.279Z,306.30
2023-02-28T20:02:41.753Z,214.00
2023-02-28T20:05:10.330Z,143.40
2023-02-28T20:07:38.335Z,147.80
2023-02-28T20:10:07.003Z,124.00
2023-02-28T20:12:35.058Z,115.60
2023-02-28T20:15:03.843Z,107.20
2023-02-28T20:17:31.913Z,152.20
2023-02-28T20:19:59.887Z,184.50
2023-02-28T20:22:28.114Z,241.30
2023-02-28T20:24:56.137Z,273.50
2023-02-28T20:27:24.105Z,223.90
2023-02-28T20:29:53.501Z,189.90
2023-02-28T20:32:21.605Z,172.10
2023-02-28T20:34:49.537Z,201.90
2023-02-28T20:37:17.508Z,201.60
2023-02-28T20:39:46.004Z,164.90
2023-02-28T20:42:13.967Z,178.30
2023-02-28T20:44:41.973Z,176.60
2023-02-28T20:47:09.903Z,143.00
2023-02-28T20:49:37.869Z,132.90
2023-02-28T20:52:05.866Z,107.20
2023-02-28T20:54:36.260Z,101.60
2023-02-28T20:57:04.338Z,83.20
2023-02-28T20:59:32.532Z,63.10
2023-02-28T21:02:00.572Z,50.70
2023-02-28T21:04:29.160Z,44.70
2023-02-28T21:06:57.125Z,48.30
2023-02-28T21:09:25.507Z,52.60
2023-02-28T21:11:54.455Z,58.80
2023-02-28T21:14:22.475Z,55.90
2023-02-28T21:16:50.547Z,60.30
2023-02-28T21:19:19.031Z,69.20
2023-02-28T21:21:48.401Z,91.70
2023-02-28T21:24:18.986Z,92.70
2023-02-28T21:26:47.949Z,112.00
2023-02-28T21:29:16.223Z,111.50
2023-02-28T21:31:44.648Z,121.80
2023-02-28T21:34:13.804Z,105.90
2023-02-28T21:36:45.926Z,99.80
2023-02-28T21:39:21.959Z,91.60
2023-02-28T21:41:50.296Z,89.50
2023-02-28T21:44:18.959Z,81.80
2023-02-28T21:46:50.424Z,78.90
2023-02-28T21:49:18.910Z,67.90
2023-02-28T21:51:46.857Z,68.50
2023-02-28T21:54:14.859Z,66.00
2023-02-28T21:56:43.044Z,73.00
2023-02-28T21:59:11.298Z,66.90
2023-02-28T22:01:43.609Z,64.60
2023-02-28T22:04:21.567Z,58.30
2023-02-28T22:06:52.853Z,52.90
2023-02-28T22:09:21.725Z,51.00
2023-02-28T22:11:50.612Z,58.70
2023-02-28T22:14:18.852Z,58.70
2023-02-28T22:16:52.375Z,176.40
2023-02-28T22:19:22.715Z,179.70
2023-02-28T22:21:51.825Z,130.40
2023-02-28T22:24:23.541Z,81.60
2023-02-28T22:26:52.634Z,67.40
2023-02-28T22:29:21.328Z,57.60
2023-02-28T22:31:49.729Z,61.90
2023-02-28T22:34:17.938Z,63.20
2023-02-28T22:36:46.065Z,59.40
2023-02-28T22:39:14.119Z,57.80
2023-02-28T22:41:42.188Z,54.50
2023-02-28T22:44:11.185Z,56.30
2023-02-28T22:46:39.532Z,56.80
2023-02-28T22:49:08.035Z,55.90
2023-02-28T22:51:36.740Z,54.70
2023-02-28T22:54:05.105Z,58.90
2023-02-28T22:56:33.344Z,60.50
2023-02-28T22:59:02.831Z,59.10
2023-02-28T23:01:33.625Z,62.00
2023-02-28T23:04:02.937Z,62.70
2023-02-28T23:06:42.350Z,58.00
2023-02-28T23:09:18.224Z,53.90
2023-02-28T23:11:49.044Z,38.00
2023-02-28T23:14:19.261Z,49.50
2023-02-28T23:16:55.031Z,48.00
2023-02-28T23:19:29.936Z,45.10
2023-02-28T23:21:59.548Z,43.80
2023-02-28T23:24:30.321Z,47.00
2023-02-28T23:27:01.965Z,46.40
2023-02-28T23:29:30.114Z,43.40
2023-02-28T23:31:58.247Z,47.70
2023-02-28T23:34:28.250Z,47.30
2023-02-28T23:37:01.734Z,45.90
2023-02-28T23:39:32.452Z,42.30
2023-02-28T23:42:01.979Z,43.80
2023-02-28T23:44:30.213Z,45.70
2023-02-28T23:46:58.290Z,45.90
2023-02-28T23:49:26.374Z,50.90
2023-02-28T23:51:54.685Z,44.20
2023-02-28T23:54:23.006Z,49.40
2023-02-28T23:56:51.087Z,44.60
2023-02-28T23:59:19.669Z,52.70
